sensor_id;sensor_type;location;lat;lon;timestamp;P1;durP1;ratioP1;P2;durP2;ratioP2
34920;SDS011;21128;50.016;20.002;2023-06-22T00:01:19;10.95;;;7.40;;
34920;SDS011;21128;50.016;20.002;2023-06-22T00:03:48;13.07;;;6.77;;
34920;SDS011;21128;50.016;20.002;2023-06-22T00:06:15;11.47;;;6.83;;
34920;SDS011;21128;50.016;20.002;2023-06-22T00:08:42;13.63;;;7.40;;
34920;SDS011;21128;50.016;20.002;2023-06-22T00:11:09;11.77;;;6.93;;
34920;SDS011;21128;50.016;20.002;2023-06-22T00:13:37;12.90;;;7.60;;
34920;SDS011;21128;50.016;20.002;2023-06-22T00:16:05;13.40;;;7.45;;
34920;SDS011;21128;50.016;20.002;2023-06-22T00:18:32;10.15;;;7.40;;
34920;SDS011;21128;50.016;20.002;2023-06-22T00:20:59;15.03;;;8.77;;
34920;SDS011;21128;50.016;20.002;2023-06-22T00:23:26;14.10;;;7.87;;
34920;SDS011;21128;50.016;20.002;2023-06-22T00:25:53;16.80;;;7.60;;
34920;SDS011;21128;50.016;20.002;2023-06-22T00:28:20;11.10;;;7.90;;
34920;SDS011;21128;50.016;20.002;2023-06-22T00:30:48;12.10;;;8.40;;
34920;SDS011;21128;50.016;20.002;2023-06-22T00:33:16;14.17;;;8.13;;
34920;SDS011;21128;50.016;20.002;2023-06-22T00:35:43;16.90;;;8.03;;
34920;SDS011;21128;50.016;20.002;2023-06-22T00:38:10;14.43;;;8.20;;
34920;SDS011;21128;50.016;20.002;2023-06-22T00:40:38;15.93;;;8.03;;
34920;SDS011;21128;50.016;20.002;2023-06-22T00:43:05;11.17;;;7.70;;
34920;SDS011;21128;50.016;20.002;2023-06-22T00:45:33;19.77;;;8.20;;
34920;SDS011;21128;50.016;20.002;2023-06-22T00:48:00;17.30;;;8.37;;
34920;SDS011;21128;50.016;20.002;2023-06-22T00:50:29;22.02;;;9.40;;
34920;SDS011;21128;50.016;20.002;2023-06-22T00:53:05;20.63;;;8.83;;
34920;SDS011;21128;50.016;20.002;2023-06-22T00:55:35;12.73;;;8.17;;
34920;SDS011;21128;50.016;20.002;2023-06-22T00:58:06;14.65;;;8.65;;
34920;SDS011;21128;50.016;20.002;2023-06-22T01:00:37;18.15;;;8.60;;
34920;SDS011;21128;50.016;20.002;2023-06-22T01:03:04;12.00;;;8.17;;
34920;SDS011;21128;50.016;20.002;2023-06-22T01:05:35;16.93;;;8.30;;
34920;SDS011;21128;50.016;20.002;2023-06-22T01:13:29;11.80;;;7.87;;
34920;SDS011;21128;50.016;20.002;2023-06-22T01:16:10;14.37;;;8.50;;
34920;SDS011;21128;50.016;20.002;2023-06-22T01:18:50;15.63;;;8.33;;
34920;SDS011;21128;50.016;20.002;2023-06-22T01:21:22;13.27;;;7.93;;
34920;SDS011;21128;50.016;20.002;2023-06-22T01:29:51;11.50;;;7.47;;
34920;SDS011;21128;50.016;20.002;2023-06-22T01:32:28;15.40;;;8.20;;
34920;SDS011;21128;50.016;20.002;2023-06-22T01:34:59;10.65;;;7.30;;
34920;SDS011;21128;50.016;20.002;2023-06-22T01:37:29;13.73;;;7.73;;
34920;SDS011;21128;50.016;20.002;2023-06-22T01:39:59;11.60;;;7.30;;
34920;SDS011;21128;50.016;20.002;2023-06-22T01:42:27;13.17;;;8.47;;
34920;SDS011;21128;50.016;20.002;2023-06-22T01:44:55;12.27;;;7.87;;
34920;SDS011;21128;50.016;20.002;2023-06-22T01:47:23;16.70;;;7.87;;
34920;SDS011;21128;50.016;20.002;2023-06-22T01:49:52;14.80;;;8.07;;
34920;SDS011;21128;50.016;20.002;2023-06-22T01:52:19;10.13;;;8.50;;
34920;SDS011;21128;50.016;20.002;2023-06-22T01:54:47;11.60;;;7.90;;
34920;SDS011;21128;50.016;20.002;2023-06-22T01:57:15;10.83;;;7.83;;
34920;SDS011;21128;50.016;20.002;2023-06-22T02:02:33;13.33;;;7.73;;
34920;SDS011;21128;50.016;20.002;2023-06-22T02:05:14;10.57;;;7.40;;
34920;SDS011;21128;50.016;20.002;2023-06-22T02:07:52;11.83;;;8.07;;
34920;SDS011;21128;50.016;20.002;2023-06-22T02:10:34;17.47;;;7.63;;
34920;SDS011;21128;50.016;20.002;2023-06-22T02:13:06;11.73;;;6.63;;
34920;SDS011;21128;50.016;20.002;2023-06-22T02:15:35;10.60;;;7.70;;
34920;SDS011;21128;50.016;20.002;2023-06-22T02:18:03;13.33;;;7.73;;
34920;SDS011;21128;50.016;20.002;2023-06-22T02:20:31;12.03;;;8.83;;
34920;SDS011;21128;50.016;20.002;2023-06-22T02:22:58;16.30;;;9.05;;
34920;SDS011;21128;50.016;20.002;2023-06-22T02:25:25;13.27;;;8.07;;
34920;SDS011;21128;50.016;20.002;2023-06-22T02:27:52;15.53;;;7.85;;
34920;SDS011;21128;50.016;20.002;2023-06-22T02:30:19;16.60;;;8.73;;
34920;SDS011;21128;50.016;20.002;2023-06-22T02:32:46;16.07;;;8.20;;
34920;SDS011;21128;50.016;20.002;2023-06-22T02:35:13;16.70;;;7.27;;
34920;SDS011;21128;50.016;20.002;2023-06-22T02:37:40;15.65;;;7.33;;
34920;SDS011;21128;50.016;20.002;2023-06-22T02:40:08;14.50;;;7.90;;
34920;SDS011;21128;50.016;20.002;2023-06-22T02:42:36;17.00;;;7.50;;
34920;SDS011;21128;50.016;20.002;2023-06-22T02:45:04;13.00;;;7.30;;
34920;SDS011;21128;50.016;20.002;2023-06-22T02:47:31;15.70;;;7.03;;
34920;SDS011;21128;50.016;20.002;2023-06-22T02:49:58;15.55;;;7.75;;
34920;SDS011;21128;50.016;20.002;2023-06-22T02:52:25;14.37;;;6.77;;
34920;SDS011;21128;50.016;20.002;2023-06-22T02:54:52;14.60;;;6.90;;
34920;SDS011;21128;50.016;20.002;2023-06-22T02:57:19;14.40;;;6.50;;
34920;SDS011;21128;50.016;20.002;2023-06-22T02:59:46;9.07;;;6.90;;
34920;SDS011;21128;50.016;20.002;2023-06-22T03:02:13;24.10;;;9.27;;
34920;SDS011;21128;50.016;20.002;2023-06-22T03:04:40;14.23;;;6.93;;
34920;SDS011;21128;50.016;20.002;2023-06-22T03:07:07;11.87;;;6.93;;
34920;SDS011;21128;50.016;20.002;2023-06-22T03:09:34;14.65;;;7.45;;
34920;SDS011;21128;50.016;20.002;2023-06-22T03:12:01;14.60;;;7.23;;
34920;SDS011;21128;50.016;20.002;2023-06-22T03:14:29;11.40;;;6.93;;
34920;SDS011;21128;50.016;20.002;2023-06-22T03:16:56;9.83;;;6.13;;
34920;SDS011;21128;50.016;20.002;2023-06-22T03:19:29;15.73;;;7.13;;
34920;SDS011;21128;50.016;20.002;2023-06-22T03:21:59;11.45;;;7.15;;
34920;SDS011;21128;50.016;20.002;2023-06-22T03:24:28;12.17;;;6.93;;
34920;SDS011;21128;50.016;20.002;2023-06-22T03:26:56;13.80;;;7.40;;
34920;SDS011;21128;50.016;20.002;2023-06-22T03:29:23;14.63;;;7.10;;
34920;SDS011;21128;50.016;20.002;2023-06-22T03:31:51;13.93;;;7.20;;
34920;SDS011;21128;50.016;20.002;2023-06-22T03:34:18;15.70;;;7.53;;
34920;SDS011;21128;50.016;20.002;2023-06-22T03:36:46;13.27;;;6.87;;
34920;SDS011;21128;50.016;20.002;2023-06-22T03:39:13;13.47;;;7.50;;
34920;SDS011;21128;50.016;20.002;2023-06-22T03:41:40;14.45;;;7.90;;
34920;SDS011;21128;50.016;20.002;2023-06-22T03:44:06;16.87;;;7.67;;
34920;SDS011;21128;50.016;20.002;2023-06-22T03:46:37;15.13;;;7.53;;
34920;SDS011;21128;50.016;20.002;2023-06-22T03:49:04;17.10;;;7.60;;
34920;SDS011;21128;50.016;20.002;2023-06-22T03:51:32;17.27;;;8.70;;
34920;SDS011;21128;50.016;20.002;2023-06-22T03:53:59;17.47;;;7.23;;
34920;SDS011;21128;50.016;20.002;2023-06-22T03:56:26;15.43;;;8.00;;
34920;SDS011;21128;50.016;20.002;2023-06-22T03:58:53;13.00;;;7.53;;
34920;SDS011;21128;50.016;20.002;2023-06-22T04:01:20;18.50;;;8.70;;
34920;SDS011;21128;50.016;20.002;2023-06-22T04:03:46;14.97;;;8.13;;
34920;SDS011;21128;50.016;20.002;2023-06-22T04:06:15;16.83;;;8.47;;
34920;SDS011;21128;50.016;20.002;2023-06-22T04:08:44;14.50;;;8.55;;
34920;SDS011;21128;50.016;20.002;2023-06-22T04:11:15;14.60;;;7.87;;
34920;SDS011;21128;50.016;20.002;2023-06-22T04:13:41;14.43;;;7.62;;
34920;SDS011;21128;50.016;20.002;2023-06-22T04:16:08;13.53;;;7.83;;
34920;SDS011;21128;50.016;20.002;2023-06-22T04:18:35;15.47;;;8.73;;
34920;SDS011;21128;50.016;20.002;2023-06-22T04:21:02;26.60;;;8.80;;
34920;SDS011;21128;50.016;20.002;2023-06-22T04:23:29;14.50;;;7.80;;
34920;SDS011;21128;50.016;20.002;2023-06-22T04:25:56;14.75;;;7.72;;
34920;SDS011;21128;50.016;20.002;2023-06-22T04:28:24;15.25;;;7.85;;
34920;SDS011;21128;50.016;20.002;2023-06-22T04:30:51;16.00;;;9.00;;
34920;SDS011;21128;50.016;20.002;2023-06-22T04:33:18;14.45;;;8.03;;
34920;SDS011;21128;50.016;20.002;2023-06-22T04:35:45;16.13;;;9.20;;
34920;SDS011;21128;50.016;20.002;2023-06-22T04:38:12;15.80;;;8.40;;
34920;SDS011;21128;50.016;20.002;2023-06-22T04:40:40;13.00;;;8.20;;
34920;SDS011;21128;50.016;20.002;2023-06-22T04:43:07;19.87;;;8.67;;
34920;SDS011;21128;50.016;20.002;2023-06-22T04:45:36;14.30;;;8.23;;
34920;SDS011;21128;50.016;20.002;2023-06-22T04:48:06;13.00;;;7.97;;
34920;SDS011;21128;50.016;20.002;2023-06-22T04:50:38;18.30;;;8.63;;
34920;SDS011;21128;50.016;20.002;2023-06-22T04:53:05;17.67;;;7.53;;
34920;SDS011;21128;50.016;20.002;2023-06-22T04:55:33;15.30;;;7.10;;
34920;SDS011;21128;50.016;20.002;2023-06-22T04:58:00;15.17;;;7.30;;
34920;SDS011;21128;50.016;20.002;2023-06-22T05:00:31;14.77;;;6.80;;
34920;SDS011;21128;50.016;20.002;2023-06-22T05:02:58;14.05;;;6.92;;
34920;SDS011;21128;50.016;20.002;2023-06-22T05:05:25;13.87;;;6.97;;
34920;SDS011;21128;50.016;20.002;2023-06-22T05:07:52;16.57;;;6.93;;
34920;SDS011;21128;50.016;20.002;2023-06-22T05:10:19;13.47;;;6.87;;
34920;SDS011;21128;50.016;20.002;2023-06-22T05:12:46;16.15;;;7.05;;
34920;SDS011;21128;50.016;20.002;2023-06-22T05:15:13;18.10;;;6.50;;
34920;SDS011;21128;50.016;20.002;2023-06-22T05:17:41;10.97;;;6.97;;
34920;SDS011;21128;50.016;20.002;2023-06-22T05:20:14;13.97;;;6.97;;
34920;SDS011;21128;50.016;20.002;2023-06-22T05:22:44;16.80;;;7.20;;
34920;SDS011;21128;50.016;20.002;2023-06-22T05:25:12;14.05;;;6.72;;
34920;SDS011;21128;50.016;20.002;2023-06-22T05:27:40;18.67;;;7.40;;
34920;SDS011;21128;50.016;20.002;2023-06-22T05:30:07;15.10;;;6.37;;
34920;SDS011;21128;50.016;20.002;2023-06-22T05:32:35;11.20;;;6.97;;
34920;SDS011;21128;50.016;20.002;2023-06-22T05:35:03;11.77;;;6.63;;
34920;SDS011;21128;50.016;20.002;2023-06-22T05:37:31;11.77;;;7.00;;
34920;SDS011;21128;50.016;20.002;2023-06-22T05:39:58;12.00;;;7.37;;
34920;SDS011;21128;50.016;20.002;2023-06-22T05:42:25;13.57;;;7.33;;
34920;SDS011;21128;50.016;20.002;2023-06-22T05:44:52;16.83;;;6.90;;
34920;SDS011;21128;50.016;20.002;2023-06-22T05:47:20;16.77;;;6.87;;
34920;SDS011;21128;50.016;20.002;2023-06-22T05:49:47;14.40;;;7.27;;
34920;SDS011;21128;50.016;20.002;2023-06-22T05:52:13;17.27;;;7.03;;
34920;SDS011;21128;50.016;20.002;2023-06-22T05:54:41;14.30;;;7.43;;
34920;SDS011;21128;50.016;20.002;2023-06-22T05:57:09;14.40;;;7.05;;
34920;SDS011;21128;50.016;20.002;2023-06-22T05:59:36;17.75;;;8.13;;
34920;SDS011;21128;50.016;20.002;2023-06-22T06:02:03;20.97;;;8.93;;
34920;SDS011;21128;50.016;20.002;2023-06-22T06:04:31;17.95;;;7.60;;
34920;SDS011;21128;50.016;20.002;2023-06-22T06:06:58;16.13;;;7.37;;
34920;SDS011;21128;50.016;20.002;2023-06-22T06:09:25;14.00;;;8.30;;
34920;SDS011;21128;50.016;20.002;2023-06-22T06:11:52;18.70;;;7.20;;
34920;SDS011;21128;50.016;20.002;2023-06-22T06:14:19;17.47;;;8.07;;
34920;SDS011;21128;50.016;20.002;2023-06-22T06:16:47;18.30;;;7.83;;
34920;SDS011;21128;50.016;20.002;2023-06-22T06:19:15;19.13;;;9.17;;
34920;SDS011;21128;50.016;20.002;2023-06-22T06:21:42;16.87;;;8.37;;
34920;SDS011;21128;50.016;20.002;2023-06-22T06:24:09;17.23;;;8.30;;
34920;SDS011;21128;50.016;20.002;2023-06-22T06:26:35;16.73;;;8.30;;
34920;SDS011;21128;50.016;20.002;2023-06-22T06:29:02;17.15;;;9.00;;
34920;SDS011;21128;50.016;20.002;2023-06-22T06:31:29;25.67;;;9.40;;
34920;SDS011;21128;50.016;20.002;2023-06-22T06:33:56;19.27;;;8.95;;
34920;SDS011;21128;50.016;20.002;2023-06-22T06:36:23;23.73;;;8.60;;
34920;SDS011;21128;50.016;20.002;2023-06-22T06:38:51;18.75;;;9.18;;
34920;SDS011;21128;50.016;20.002;2023-06-22T06:41:18;14.60;;;7.90;;
34920;SDS011;21128;50.016;20.002;2023-06-22T06:43:46;18.75;;;8.43;;
34920;SDS011;21128;50.016;20.002;2023-06-22T06:46:13;19.27;;;9.07;;
34920;SDS011;21128;50.016;20.002;2023-06-22T06:48:39;22.00;;;9.10;;
34920;SDS011;21128;50.016;20.002;2023-06-22T06:51:06;21.30;;;9.20;;
34920;SDS011;21128;50.016;20.002;2023-06-22T06:53:36;20.80;;;9.57;;
34920;SDS011;21128;50.016;20.002;2023-06-22T06:56:04;26.87;;;10.40;;
34920;SDS011;21128;50.016;20.002;2023-06-22T06:58:32;21.33;;;10.37;;
34920;SDS011;21128;50.016;20.002;2023-06-22T07:00:59;17.77;;;9.17;;
34920;SDS011;21128;50.016;20.002;2023-06-22T07:03:26;18.80;;;9.40;;
34920;SDS011;21128;50.016;20.002;2023-06-22T07:05:53;18.03;;;10.30;;
34920;SDS011;21128;50.016;20.002;2023-06-22T07:08:20;15.53;;;9.83;;
34920;SDS011;21128;50.016;20.002;2023-06-22T07:10:47;20.00;;;10.90;;
34920;SDS011;21128;50.016;20.002;2023-06-22T07:13:14;20.13;;;10.43;;
34920;SDS011;21128;50.016;20.002;2023-06-22T07:15:41;20.17;;;10.43;;
34920;SDS011;21128;50.016;20.002;2023-06-22T07:18:08;22.35;;;10.20;;
34920;SDS011;21128;50.016;20.002;2023-06-22T07:20:35;23.83;;;12.53;;
34920;SDS011;21128;50.016;20.002;2023-06-22T07:23:02;25.43;;;12.53;;
34920;SDS011;21128;50.016;20.002;2023-06-22T07:25:29;23.35;;;12.58;;
34920;SDS011;21128;50.016;20.002;2023-06-22T07:27:57;23.70;;;13.40;;
34920;SDS011;21128;50.016;20.002;2023-06-22T07:30:30;26.97;;;14.83;;
34920;SDS011;21128;50.016;20.002;2023-06-22T07:32:58;24.77;;;14.07;;
34920;SDS011;21128;50.016;20.002;2023-06-22T07:35:30;25.00;;;13.87;;
34920;SDS011;21128;50.016;20.002;2023-06-22T07:37:57;25.43;;;14.23;;
34920;SDS011;21128;50.016;20.002;2023-06-22T07:40:25;23.40;;;16.07;;
34920;SDS011;21128;50.016;20.002;2023-06-22T07:42:51;28.43;;;16.97;;
34920;SDS011;21128;50.016;20.002;2023-06-22T07:45:19;24.03;;;15.97;;
34920;SDS011;21128;50.016;20.002;2023-06-22T07:47:46;27.65;;;16.15;;
34920;SDS011;21128;50.016;20.002;2023-06-22T07:50:13;22.82;;;14.90;;
34920;SDS011;21128;50.016;20.002;2023-06-22T07:52:40;28.03;;;16.80;;
34920;SDS011;21128;50.016;20.002;2023-06-22T07:55:07;24.30;;;15.10;;
34920;SDS011;21128;50.016;20.002;2023-06-22T07:57:35;25.47;;;14.87;;
34920;SDS011;21128;50.016;20.002;2023-06-22T08:00:03;28.43;;;13.80;;
34920;SDS011;21128;50.016;20.002;2023-06-22T08:02:42;22.90;;;15.10;;
34920;SDS011;21128;50.016;20.002;2023-06-22T08:05:12;28.33;;;17.37;;
34920;SDS011;21128;50.016;20.002;2023-06-22T08:07:40;27.60;;;16.50;;
34920;SDS011;21128;50.016;20.002;2023-06-22T08:10:11;24.00;;;16.33;;
34920;SDS011;21128;50.016;20.002;2023-06-22T08:12:39;26.27;;;16.57;;
34920;SDS011;21128;50.016;20.002;2023-06-22T08:15:07;32.17;;;18.03;;
34920;SDS011;21128;50.016;20.002;2023-06-22T08:17:36;23.70;;;18.63;;
34920;SDS011;21128;50.016;20.002;2023-06-22T08:20:05;23.77;;;16.80;;
34920;SDS011;21128;50.016;20.002;2023-06-22T08:22:36;26.20;;;17.10;;
34920;SDS011;21128;50.016;20.002;2023-06-22T08:25:03;27.07;;;18.57;;
34920;SDS011;21128;50.016;20.002;2023-06-22T08:27:31;27.27;;;18.23;;
34920;SDS011;21128;50.016;20.002;2023-06-22T08:29:59;22.17;;;16.60;;
34920;SDS011;21128;50.016;20.002;2023-06-22T08:32:30;26.37;;;16.77;;
34920;SDS011;21128;50.016;20.002;2023-06-22T08:37:25;21.47;;;14.90;;
34920;SDS011;21128;50.016;20.002;2023-06-22T08:39:58;17.33;;;13.37;;
34920;SDS011;21128;50.016;20.002;2023-06-22T08:42:27;17.80;;;12.80;;
34920;SDS011;21128;50.016;20.002;2023-06-22T08:44:54;15.98;;;13.65;;
34920;SDS011;21128;50.016;20.002;2023-06-22T08:47:22;19.93;;;14.00;;
34920;SDS011;21128;50.016;20.002;2023-06-22T08:49:49;18.05;;;13.80;;
34920;SDS011;21128;50.016;20.002;2023-06-22T08:52:17;18.43;;;15.13;;
34920;SDS011;21128;50.016;20.002;2023-06-22T08:54:46;23.30;;;15.33;;
34920;SDS011;21128;50.016;20.002;2023-06-22T08:57:14;17.97;;;15.60;;
34920;SDS011;21128;50.016;20.002;2023-06-22T08:59:41;17.93;;;14.33;;
34920;SDS011;21128;50.016;20.002;2023-06-22T09:02:09;16.63;;;13.30;;
34920;SDS011;21128;50.016;20.002;2023-06-22T09:04:36;15.43;;;12.70;;
34920;SDS011;21128;50.016;20.002;2023-06-22T09:07:03;16.27;;;13.17;;
34920;SDS011;21128;50.016;20.002;2023-06-22T09:09:30;16.30;;;13.60;;
34920;SDS011;21128;50.016;20.002;2023-06-22T09:11:57;19.00;;;13.30;;
34920;SDS011;21128;50.016;20.002;2023-06-22T09:14:24;19.45;;;14.80;;
34920;SDS011;21128;50.016;20.002;2023-06-22T09:16:51;20.77;;;14.17;;
34920;SDS011;21128;50.016;20.002;2023-06-22T09:19:18;20.02;;;15.48;;
34920;SDS011;21128;50.016;20.002;2023-06-22T09:21:45;15.15;;;13.55;;
34920;SDS011;21128;50.016;20.002;2023-06-22T09:24:12;17.13;;;13.73;;
34920;SDS011;21128;50.016;20.002;2023-06-22T09:26:39;15.98;;;13.88;;
34920;SDS011;21128;50.016;20.002;2023-06-22T09:29:06;17.60;;;13.43;;
34920;SDS011;21128;50.016;20.002;2023-06-22T09:31:33;16.83;;;14.87;;
34920;SDS011;21128;50.016;20.002;2023-06-22T09:34:00;21.47;;;15.33;;
34920;SDS011;21128;50.016;20.002;2023-06-22T09:36:27;17.67;;;12.43;;
34920;SDS011;21128;50.016;20.002;2023-06-22T09:38:53;16.25;;;13.00;;
34920;SDS011;21128;50.016;20.002;2023-06-22T09:41:25;12.73;;;11.40;;
34920;SDS011;21128;50.016;20.002;2023-06-22T09:43:52;15.10;;;11.55;;
34920;SDS011;21128;50.016;20.002;2023-06-22T09:46:19;15.30;;;11.57;;
34920;SDS011;21128;50.016;20.002;2023-06-22T09:48:48;13.43;;;11.10;;
34920;SDS011;21128;50.016;20.002;2023-06-22T09:51:15;15.18;;;11.78;;
34920;SDS011;21128;50.016;20.002;2023-06-22T09:53:42;23.90;;;11.53;;
34920;SDS011;21128;50.016;20.002;2023-06-22T09:56:09;14.83;;;11.30;;
34920;SDS011;21128;50.016;20.002;2023-06-22T09:58:44;15.03;;;11.27;;
34920;SDS011;21128;50.016;20.002;2023-06-22T10:01:13;12.95;;;11.50;;
34920;SDS011;21128;50.016;20.002;2023-06-22T10:03:43;20.90;;;12.00;;
34920;SDS011;21128;50.016;20.002;2023-06-22T10:06:10;13.27;;;11.80;;
34920;SDS011;21128;50.016;20.002;2023-06-22T10:08:37;11.80;;;10.60;;
34920;SDS011;21128;50.016;20.002;2023-06-22T10:11:05;11.43;;;10.23;;
34920;SDS011;21128;50.016;20.002;2023-06-22T10:13:32;15.93;;;9.17;;
34920;SDS011;21128;50.016;20.002;2023-06-22T10:15:59;12.53;;;10.28;;
34920;SDS011;21128;50.016;20.002;2023-06-22T10:18:26;11.63;;;9.57;;
34920;SDS011;21128;50.016;20.002;2023-06-22T10:20:53;17.52;;;9.53;;
34920;SDS011;21128;50.016;20.002;2023-06-22T10:23:20;12.70;;;9.33;;
34920;SDS011;21128;50.016;20.002;2023-06-22T10:25:47;14.23;;;9.75;;
34920;SDS011;21128;50.016;20.002;2023-06-22T10:28:14;11.60;;;9.87;;
34920;SDS011;21128;50.016;20.002;2023-06-22T10:30:41;13.83;;;9.20;;
34920;SDS011;21128;50.016;20.002;2023-06-22T10:33:09;15.80;;;9.45;;
34920;SDS011;21128;50.016;20.002;2023-06-22T10:35:37;11.10;;;9.50;;
34920;SDS011;21128;50.016;20.002;2023-06-22T10:38:04;11.33;;;9.37;;
34920;SDS011;21128;50.016;20.002;2023-06-22T10:40:32;10.53;;;8.37;;
34920;SDS011;21128;50.016;20.002;2023-06-22T10:42:59;11.68;;;8.95;;
34920;SDS011;21128;50.016;20.002;2023-06-22T10:45:26;15.05;;;8.45;;
34920;SDS011;21128;50.016;20.002;2023-06-22T10:47:54;14.60;;;8.53;;
34920;SDS011;21128;50.016;20.002;2023-06-22T10:50:21;11.03;;;8.00;;
34920;SDS011;21128;50.016;20.002;2023-06-22T10:52:50;11.20;;;8.50;;
34920;SDS011;21128;50.016;20.002;2023-06-22T10:55:17;15.58;;;8.50;;
34920;SDS011;21128;50.016;20.002;2023-06-22T10:57:45;12.50;;;8.80;;
34920;SDS011;21128;50.016;20.002;2023-06-22T11:00:14;11.95;;;7.25;;
34920;SDS011;21128;50.016;20.002;2023-06-22T11:02:42;9.03;;;8.20;;
34920;SDS011;21128;50.016;20.002;2023-06-22T11:05:09;14.80;;;8.60;;
34920;SDS011;21128;50.016;20.002;2023-06-22T11:07:37;11.43;;;8.70;;
34920;SDS011;21128;50.016;20.002;2023-06-22T11:10:05;11.50;;;7.93;;
34920;SDS011;21128;50.016;20.002;2023-06-22T11:12:33;8.93;;;8.03;;
34920;SDS011;21128;50.016;20.002;2023-06-22T11:15:00;11.03;;;8.10;;
34920;SDS011;21128;50.016;20.002;2023-06-22T11:17:27;10.35;;;7.95;;
34920;SDS011;21128;50.016;20.002;2023-06-22T11:19:54;9.80;;;7.95;;
34920;SDS011;21128;50.016;20.002;2023-06-22T11:22:21;9.00;;;8.10;;
34920;SDS011;21128;50.016;20.002;2023-06-22T11:24:48;8.60;;;7.33;;
34920;SDS011;21128;50.016;20.002;2023-06-22T11:27:15;8.77;;;7.23;;
34920;SDS011;21128;50.016;20.002;2023-06-22T11:29:42;9.10;;;7.15;;
34920;SDS011;21128;50.016;20.002;2023-06-22T11:32:09;11.33;;;8.07;;
34920;SDS011;21128;50.016;20.002;2023-06-22T11:34:36;12.78;;;7.20;;
34920;SDS011;21128;50.016;20.002;2023-06-22T11:37:03;11.43;;;7.63;;
34920;SDS011;21128;50.016;20.002;2023-06-22T11:39:30;8.90;;;7.37;;
34920;SDS011;21128;50.016;20.002;2023-06-22T11:41:56;11.00;;;8.25;;
34920;SDS011;21128;50.016;20.002;2023-06-22T11:44:23;10.63;;;7.45;;
34920;SDS011;21128;50.016;20.002;2023-06-22T11:46:50;6.90;;;6.30;;
34920;SDS011;21128;50.016;20.002;2023-06-22T11:49:17;10.00;;;7.10;;
34920;SDS011;21128;50.016;20.002;2023-06-22T11:51:44;9.70;;;8.13;;
34920;SDS011;21128;50.016;20.002;2023-06-22T11:54:11;11.47;;;8.03;;
34920;SDS011;21128;50.016;20.002;2023-06-22T11:56:38;10.17;;;7.30;;
34920;SDS011;21128;50.016;20.002;2023-06-22T11:59:05;10.47;;;6.90;;
34920;SDS011;21128;50.016;20.002;2023-06-22T12:01:32;13.57;;;7.40;;
34920;SDS011;21128;50.016;20.002;2023-06-22T12:04:00;8.48;;;6.85;;
34920;SDS011;21128;50.016;20.002;2023-06-22T12:06:27;9.27;;;7.17;;
34920;SDS011;21128;50.016;20.002;2023-06-22T12:08:54;9.17;;;7.07;;
34920;SDS011;21128;50.016;20.002;2023-06-22T12:11:21;9.03;;;6.57;;
34920;SDS011;21128;50.016;20.002;2023-06-22T12:13:47;12.73;;;7.17;;
34920;SDS011;21128;50.016;20.002;2023-06-22T12:16:14;11.50;;;6.93;;
34920;SDS011;21128;50.016;20.002;2023-06-22T12:18:41;10.53;;;7.27;;
34920;SDS011;21128;50.016;20.002;2023-06-22T12:21:08;18.00;;;7.80;;
34920;SDS011;21128;50.016;20.002;2023-06-22T12:23:35;10.60;;;6.67;;
34920;SDS011;21128;50.016;20.002;2023-06-22T12:26:02;10.10;;;6.27;;
34920;SDS011;21128;50.016;20.002;2023-06-22T12:28:29;11.00;;;7.30;;
34920;SDS011;21128;50.016;20.002;2023-06-22T12:30:56;11.80;;;7.30;;
34920;SDS011;21128;50.016;20.002;2023-06-22T12:33:23;7.47;;;6.65;;
34920;SDS011;21128;50.016;20.002;2023-06-22T12:35:50;10.17;;;7.17;;
34920;SDS011;21128;50.016;20.002;2023-06-22T12:38:17;9.13;;;6.58;;
34920;SDS011;21128;50.016;20.002;2023-06-22T12:40:44;8.50;;;6.60;;
34920;SDS011;21128;50.016;20.002;2023-06-22T12:43:13;8.87;;;6.47;;
34920;SDS011;21128;50.016;20.002;2023-06-22T12:45:40;8.45;;;6.85;;
34920;SDS011;21128;50.016;20.002;2023-06-22T12:48:07;12.33;;;7.13;;
34920;SDS011;21128;50.016;20.002;2023-06-22T12:50:35;9.03;;;6.27;;
34920;SDS011;21128;50.016;20.002;2023-06-22T12:53:01;10.30;;;6.90;;
34920;SDS011;21128;50.016;20.002;2023-06-22T12:55:30;7.87;;;7.10;;
34920;SDS011;21128;50.016;20.002;2023-06-22T12:57:57;8.60;;;6.40;;
34920;SDS011;21128;50.016;20.002;2023-06-22T13:00:24;7.23;;;6.60;;
34920;SDS011;21128;50.016;20.002;2023-06-22T13:02:51;7.33;;;6.57;;
34920;SDS011;21128;50.016;20.002;2023-06-22T13:05:18;12.03;;;6.47;;
34920;SDS011;21128;50.016;20.002;2023-06-22T13:07:45;13.40;;;6.23;;
34920;SDS011;21128;50.016;20.002;2023-06-22T13:10:12;8.37;;;6.43;;
34920;SDS011;21128;50.016;20.002;2023-06-22T13:12:39;11.05;;;6.35;;
34920;SDS011;21128;50.016;20.002;2023-06-22T13:15:06;8.23;;;6.20;;
34920;SDS011;21128;50.016;20.002;2023-06-22T13:17:34;17.27;;;6.30;;
34920;SDS011;21128;50.016;20.002;2023-06-22T13:20:01;9.33;;;6.07;;
34920;SDS011;21128;50.016;20.002;2023-06-22T13:22:31;8.95;;;6.50;;
34920;SDS011;21128;50.016;20.002;2023-06-22T13:25:09;10.10;;;6.73;;
34920;SDS011;21128;50.016;20.002;2023-06-22T13:27:39;11.73;;;6.50;;
34920;SDS011;21128;50.016;20.002;2023-06-22T13:30:09;7.00;;;6.30;;
34920;SDS011;21128;50.016;20.002;2023-06-22T13:32:36;8.70;;;5.40;;
34920;SDS011;21128;50.016;20.002;2023-06-22T13:35:03;9.87;;;6.23;;
34920;SDS011;21128;50.016;20.002;2023-06-22T13:37:30;9.20;;;5.90;;
34920;SDS011;21128;50.016;20.002;2023-06-22T13:39:57;7.00;;;6.07;;
34920;SDS011;21128;50.016;20.002;2023-06-22T13:42:26;8.20;;;5.47;;
34920;SDS011;21128;50.016;20.002;2023-06-22T13:44:52;10.23;;;6.27;;
34920;SDS011;21128;50.016;20.002;2023-06-22T13:47:19;10.17;;;6.27;;
34920;SDS011;21128;50.016;20.002;2023-06-22T13:49:46;15.32;;;6.33;;
34920;SDS011;21128;50.016;20.002;2023-06-22T13:52:13;13.30;;;5.97;;
34920;SDS011;21128;50.016;20.002;2023-06-22T13:54:40;9.55;;;6.08;;
34920;SDS011;21128;50.016;20.002;2023-06-22T13:57:07;11.13;;;6.50;;
34920;SDS011;21128;50.016;20.002;2023-06-22T13:59:34;10.45;;;6.20;;
34920;SDS011;21128;50.016;20.002;2023-06-22T14:02:01;9.43;;;5.40;;
34920;SDS011;21128;50.016;20.002;2023-06-22T14:04:28;13.37;;;6.40;;
34920;SDS011;21128;50.016;20.002;2023-06-22T14:06:55;8.33;;;5.75;;
34920;SDS011;21128;50.016;20.002;2023-06-22T14:09:22;14.17;;;6.53;;
34920;SDS011;21128;50.016;20.002;2023-06-22T14:11:50;8.70;;;6.20;;
34920;SDS011;21128;50.016;20.002;2023-06-22T14:14:16;9.30;;;6.13;;
34920;SDS011;21128;50.016;20.002;2023-06-22T14:16:43;7.08;;;5.35;;
34920;SDS011;21128;50.016;20.002;2023-06-22T14:19:10;10.60;;;6.60;;
34920;SDS011;21128;50.016;20.002;2023-06-22T14:21:37;10.53;;;6.05;;
34920;SDS011;21128;50.016;20.002;2023-06-22T14:24:04;8.27;;;6.03;;
34920;SDS011;21128;50.016;20.002;2023-06-22T14:26:31;16.17;;;6.47;;
34920;SDS011;21128;50.016;20.002;2023-06-22T14:28:58;11.87;;;5.93;;
34920;SDS011;21128;50.016;20.002;2023-06-22T14:31:25;9.10;;;6.67;;
34920;SDS011;21128;50.016;20.002;2023-06-22T14:33:52;11.15;;;5.90;;
34920;SDS011;21128;50.016;20.002;2023-06-22T14:36:19;15.68;;;6.50;;
34920;SDS011;21128;50.016;20.002;2023-06-22T14:38:46;12.37;;;5.90;;
34920;SDS011;21128;50.016;20.002;2023-06-22T14:41:13;12.80;;;5.73;;